Porto Santo Airport Vila Baleira PT
ICAO: LPPS
IATA: PXO
Category: Medium
Scheduled Services: Yes

Elevation: 341 ft
TransAlt. 5000 ft.

Airport Communications:
GCA:123.3
TWR:118.4

LPPS Zoom In..

Runways:

(A) RW 18 length 7871 ft width 148 ft
---- / hdg 184

(B) RW 36 length 7871 ft width 148 ft
---- / hdg 4

Location; LPPS
Day. 14 / Time. 14.00 Zulu
* QNH: 1022
* Temperature: 25° c. 77°f.
* Wind from: 360° Speed 12 kn.
Dewpoint: 17° c.
Visibility: 10 km or more.
Clouds: Few 1500 ft.

LPPS 141400Z 36012KT 340V040 9999 FEW015 25/17 Q1022


Wind From 360°
Speed 12 kn.

 
 
jpsmedia.com for Web Design worldairports.se 2018   terms of use